sensor_id;sensor_type;location;lat;lon;timestamp;P1;durP1;ratioP1;P2;durP2;ratioP2
14030;SDS011;7090;49.436;8.490;2022-09-13T00:00:51;3.40;;;3.30;;
14030;SDS011;7090;49.436;8.490;2022-09-13T00:03:18;3.50;;;3.40;;
14030;SDS011;7090;49.436;8.490;2022-09-13T00:05:45;3.45;;;3.35;;
14030;SDS011;7090;49.436;8.490;2022-09-13T00:08:11;3.50;;;3.40;;
14030;SDS011;7090;49.436;8.490;2022-09-13T00:10:37;4.13;;;4.00;;
14030;SDS011;7090;49.436;8.490;2022-09-13T00:13:05;2.90;;;2.80;;
14030;SDS011;7090;49.436;8.490;2022-09-13T00:15:32;3.10;;;3.00;;
14030;SDS011;7090;49.436;8.490;2022-09-13T00:17:58;3.58;;;3.38;;
14030;SDS011;7090;49.436;8.490;2022-09-13T00:20:24;2.90;;;2.80;;
14030;SDS011;7090;49.436;8.490;2022-09-13T00:22:50;2.60;;;2.50;;
14030;SDS011;7090;49.436;8.490;2022-09-13T00:25:15;2.60;;;2.50;;
14030;SDS011;7090;49.436;8.490;2022-09-13T00:27:41;2.65;;;2.55;;
14030;SDS011;7090;49.436;8.490;2022-09-13T00:30:08;2.85;;;2.75;;
14030;SDS011;7090;49.436;8.490;2022-09-13T00:32:35;2.90;;;2.80;;
14030;SDS011;7090;49.436;8.490;2022-09-13T00:35:01;2.90;;;2.80;;
14030;SDS011;7090;49.436;8.490;2022-09-13T00:37:28;3.88;;;3.75;;
14030;SDS011;7090;49.436;8.490;2022-09-13T00:39:55;3.00;;;2.90;;
14030;SDS011;7090;49.436;8.490;2022-09-13T00:42:27;3.00;;;2.90;;
14030;SDS011;7090;49.436;8.490;2022-09-13T00:44:58;2.90;;;2.80;;
14030;SDS011;7090;49.436;8.490;2022-09-13T00:47:34;3.10;;;3.00;;
14030;SDS011;7090;49.436;8.490;2022-09-13T00:50:48;3.00;;;2.90;;
14030;SDS011;7090;49.436;8.490;2022-09-13T00:52:58;3.00;;;2.90;;
14030;SDS011;7090;49.436;8.490;2022-09-13T00:58:05;3.00;;;2.90;;
14030;SDS011;7090;49.436;8.490;2022-09-13T01:00:44;2.95;;;2.85;;
14030;SDS011;7090;49.436;8.490;2022-09-13T01:03:12;2.70;;;2.60;;
14030;SDS011;7090;49.436;8.490;2022-09-13T01:05:43;2.80;;;2.70;;
14030;SDS011;7090;49.436;8.490;2022-09-13T01:08:12;3.00;;;2.90;;
14030;SDS011;7090;49.436;8.490;2022-09-13T01:10:47;2.90;;;2.80;;
14030;SDS011;7090;49.436;8.490;2022-09-13T01:13:17;3.13;;;3.03;;
14030;SDS011;7090;49.436;8.490;2022-09-13T01:15:45;3.08;;;2.97;;
14030;SDS011;7090;49.436;8.490;2022-09-13T01:18:11;3.10;;;3.00;;
14030;SDS011;7090;49.436;8.490;2022-09-13T01:31:34;2.70;;;2.60;;
14030;SDS011;7090;49.436;8.490;2022-09-13T01:42:06;3.10;;;3.00;;
14030;SDS011;7090;49.436;8.490;2022-09-13T01:44:41;3.00;;;2.90;;
14030;SDS011;7090;49.436;8.490;2022-09-13T02:00:34;2.70;;;2.60;;
14030;SDS011;7090;49.436;8.490;2022-09-13T02:03:07;2.60;;;2.50;;
14030;SDS011;7090;49.436;8.490;2022-09-13T02:05:46;2.60;;;2.50;;
14030;SDS011;7090;49.436;8.490;2022-09-13T02:10:50;2.60;;;2.50;;
14030;SDS011;7090;49.436;8.490;2022-09-13T02:13:24;2.60;;;2.50;;
14030;SDS011;7090;49.436;8.490;2022-09-13T02:15:53;3.13;;;3.03;;
14030;SDS011;7090;49.436;8.490;2022-09-13T02:18:34;2.90;;;2.80;;
14030;SDS011;7090;49.436;8.490;2022-09-13T02:21:37;2.72;;;2.63;;
14030;SDS011;7090;49.436;8.490;2022-09-13T02:24:02;4.32;;;3.90;;
14030;SDS011;7090;49.436;8.490;2022-09-13T02:26:35;3.10;;;2.95;;
14030;SDS011;7090;49.436;8.490;2022-09-13T02:29:06;2.60;;;2.50;;
14030;SDS011;7090;49.436;8.490;2022-09-13T02:34:53;2.50;;;2.40;;
14030;SDS011;7090;49.436;8.490;2022-09-13T02:37:24;2.90;;;2.80;;
14030;SDS011;7090;49.436;8.490;2022-09-13T02:39:54;3.00;;;2.90;;
14030;SDS011;7090;49.436;8.490;2022-09-13T02:42:32;3.20;;;3.10;;
14030;SDS011;7090;49.436;8.490;2022-09-13T02:45:02;3.03;;;2.93;;
14030;SDS011;7090;49.436;8.490;2022-09-13T02:47:32;2.43;;;2.33;;
14030;SDS011;7090;49.436;8.490;2022-09-13T02:53:08;2.50;;;2.40;;
14030;SDS011;7090;49.436;8.490;2022-09-13T02:58:45;2.10;;;2.10;;
14030;SDS011;7090;49.436;8.490;2022-09-13T03:01:15;3.07;;;2.97;;
14030;SDS011;7090;49.436;8.490;2022-09-13T03:03:41;2.57;;;2.47;;
14030;SDS011;7090;49.436;8.490;2022-09-13T03:06:08;2.60;;;2.50;;
14030;SDS011;7090;49.436;8.490;2022-09-13T03:08:34;2.00;;;2.00;;
14030;SDS011;7090;49.436;8.490;2022-09-13T03:24:45;1.60;;;1.60;;
14030;SDS011;7090;49.436;8.490;2022-09-13T03:30:04;3.23;;;2.93;;
14030;SDS011;7090;49.436;8.490;2022-09-13T03:37:26;1.50;;;1.50;;
14030;SDS011;7090;49.436;8.490;2022-09-13T03:40:08;1.50;;;1.50;;
14030;SDS011;7090;49.436;8.490;2022-09-13T03:45:45;1.90;;;1.90;;
14030;SDS011;7090;49.436;8.490;2022-09-13T03:48:13;1.70;;;1.70;;
14030;SDS011;7090;49.436;8.490;2022-09-13T03:50:40;1.70;;;1.70;;
14030;SDS011;7090;49.436;8.490;2022-09-13T03:53:10;1.70;;;1.70;;
14030;SDS011;7090;49.436;8.490;2022-09-13T03:55:40;1.80;;;1.80;;
14030;SDS011;7090;49.436;8.490;2022-09-13T03:58:10;1.70;;;1.70;;
14030;SDS011;7090;49.436;8.490;2022-09-13T04:00:41;1.70;;;1.70;;
14030;SDS011;7090;49.436;8.490;2022-09-13T04:03:07;1.80;;;1.80;;
14030;SDS011;7090;49.436;8.490;2022-09-13T04:05:33;1.80;;;1.80;;
14030;SDS011;7090;49.436;8.490;2022-09-13T04:07:59;2.00;;;2.00;;
14030;SDS011;7090;49.436;8.490;2022-09-13T04:10:26;2.00;;;2.00;;
14030;SDS011;7090;49.436;8.490;2022-09-13T04:12:55;2.10;;;2.10;;
14030;SDS011;7090;49.436;8.490;2022-09-13T04:15:21;2.30;;;2.30;;
14030;SDS011;7090;49.436;8.490;2022-09-13T04:17:47;2.80;;;2.70;;
14030;SDS011;7090;49.436;8.490;2022-09-13T04:20:12;2.80;;;2.70;;
14030;SDS011;7090;49.436;8.490;2022-09-13T04:22:38;2.80;;;2.70;;
14030;SDS011;7090;49.436;8.490;2022-09-13T04:25:04;2.90;;;2.80;;
14030;SDS011;7090;49.436;8.490;2022-09-13T04:27:30;3.60;;;3.47;;
14030;SDS011;7090;49.436;8.490;2022-09-13T04:29:56;3.10;;;3.00;;
14030;SDS011;7090;49.436;8.490;2022-09-13T04:32:21;3.30;;;3.20;;
14030;SDS011;7090;49.436;8.490;2022-09-13T04:34:47;2.80;;;2.70;;
14030;SDS011;7090;49.436;8.490;2022-09-13T04:37:12;2.90;;;2.80;;
14030;SDS011;7090;49.436;8.490;2022-09-13T04:39:38;2.70;;;2.60;;
14030;SDS011;7090;49.436;8.490;2022-09-13T04:42:04;3.10;;;3.00;;
14030;SDS011;7090;49.436;8.490;2022-09-13T04:44:31;3.30;;;3.20;;
14030;SDS011;7090;49.436;8.490;2022-09-13T04:46:57;3.97;;;3.67;;
14030;SDS011;7090;49.436;8.490;2022-09-13T04:49:22;3.87;;;3.67;;
14030;SDS011;7090;49.436;8.490;2022-09-13T04:51:48;2.70;;;2.60;;
14030;SDS011;7090;49.436;8.490;2022-09-13T04:54:14;4.10;;;3.80;;
14030;SDS011;7090;49.436;8.490;2022-09-13T04:56:39;3.70;;;3.50;;
14030;SDS011;7090;49.436;8.490;2022-09-13T04:59:05;4.40;;;4.10;;
14030;SDS011;7090;49.436;8.490;2022-09-13T05:01:31;3.30;;;3.20;;
14030;SDS011;7090;49.436;8.490;2022-09-13T05:03:56;3.20;;;3.10;;
14030;SDS011;7090;49.436;8.490;2022-09-13T05:06:22;3.60;;;3.50;;
14030;SDS011;7090;49.436;8.490;2022-09-13T05:08:51;3.30;;;3.20;;
14030;SDS011;7090;49.436;8.490;2022-09-13T05:11:19;4.33;;;4.13;;
14030;SDS011;7090;49.436;8.490;2022-09-13T05:13:50;3.60;;;3.50;;
14030;SDS011;7090;49.436;8.490;2022-09-13T05:16:18;4.13;;;3.93;;
14030;SDS011;7090;49.436;8.490;2022-09-13T05:18:48;3.53;;;3.43;;
14030;SDS011;7090;49.436;8.490;2022-09-13T05:21:14;3.87;;;3.67;;
14030;SDS011;7090;49.436;8.490;2022-09-13T05:23:39;3.10;;;3.00;;
14030;SDS011;7090;49.436;8.490;2022-09-13T05:26:05;3.80;;;3.70;;
14030;SDS011;7090;49.436;8.490;2022-09-13T05:28:32;4.43;;;4.13;;
14030;SDS011;7090;49.436;8.490;2022-09-13T05:31:03;4.50;;;4.30;;
14030;SDS011;7090;49.436;8.490;2022-09-13T05:33:37;3.60;;;3.40;;
14030;SDS011;7090;49.436;8.490;2022-09-13T05:36:03;3.77;;;3.67;;
14030;SDS011;7090;49.436;8.490;2022-09-13T05:38:30;4.27;;;4.07;;
14030;SDS011;7090;49.436;8.490;2022-09-13T05:40:56;3.83;;;3.63;;
14030;SDS011;7090;49.436;8.490;2022-09-13T05:43:27;2.90;;;2.80;;
14030;SDS011;7090;49.436;8.490;2022-09-13T05:48:26;4.30;;;4.05;;
14030;SDS011;7090;49.436;8.490;2022-09-13T05:50:51;3.65;;;3.55;;
14030;SDS011;7090;49.436;8.490;2022-09-13T05:53:17;3.00;;;2.90;;
14030;SDS011;7090;49.436;8.490;2022-09-13T05:55:42;3.30;;;3.20;;
14030;SDS011;7090;49.436;8.490;2022-09-13T05:58:08;3.33;;;3.23;;
14030;SDS011;7090;49.436;8.490;2022-09-13T06:00:33;4.07;;;3.78;;
14030;SDS011;7090;49.436;8.490;2022-09-13T06:02:59;3.55;;;3.45;;
14030;SDS011;7090;49.436;8.490;2022-09-13T06:05:24;3.60;;;3.40;;
14030;SDS011;7090;49.436;8.490;2022-09-13T06:07:50;3.55;;;3.42;;
14030;SDS011;7090;49.436;8.490;2022-09-13T06:10:16;3.65;;;3.55;;
14030;SDS011;7090;49.436;8.490;2022-09-13T06:12:41;3.17;;;3.08;;
14030;SDS011;7090;49.436;8.490;2022-09-13T06:15:07;5.22;;;4.38;;
14030;SDS011;7090;49.436;8.490;2022-09-13T06:17:33;5.45;;;5.05;;
14030;SDS011;7090;49.436;8.490;2022-09-13T06:19:59;2.80;;;2.70;;
14030;SDS011;7090;49.436;8.490;2022-09-13T06:22:24;3.80;;;3.60;;
14030;SDS011;7090;49.436;8.490;2022-09-13T06:24:56;3.22;;;3.13;;
14030;SDS011;7090;49.436;8.490;2022-09-13T06:27:23;5.05;;;4.75;;
14030;SDS011;7090;49.436;8.490;2022-09-13T06:29:48;4.13;;;3.90;;
14030;SDS011;7090;49.436;8.490;2022-09-13T06:32:14;5.13;;;4.68;;
14030;SDS011;7090;49.436;8.490;2022-09-13T06:34:39;3.20;;;3.10;;
14030;SDS011;7090;49.436;8.490;2022-09-13T06:37:05;4.40;;;4.10;;
14030;SDS011;7090;49.436;8.490;2022-09-13T06:39:30;2.60;;;2.50;;
14030;SDS011;7090;49.436;8.490;2022-09-13T06:41:58;7.30;;;4.70;;
14030;SDS011;7090;49.436;8.490;2022-09-13T06:44:24;5.25;;;4.75;;
14030;SDS011;7090;49.436;8.490;2022-09-13T06:46:49;6.72;;;6.20;;
14030;SDS011;7090;49.436;8.490;2022-09-13T06:49:15;3.13;;;2.92;;
14030;SDS011;7090;49.436;8.490;2022-09-13T06:51:40;3.03;;;2.88;;
14030;SDS011;7090;49.436;8.490;2022-09-13T06:54:06;2.38;;;2.30;;
14030;SDS011;7090;49.436;8.490;2022-09-13T06:56:33;3.85;;;3.60;;
14030;SDS011;7090;49.436;8.490;2022-09-13T06:59:02;2.90;;;2.80;;
14030;SDS011;7090;49.436;8.490;2022-09-13T07:01:33;3.47;;;3.28;;
14030;SDS011;7090;49.436;8.490;2022-09-13T07:04:02;2.78;;;2.65;;
14030;SDS011;7090;49.436;8.490;2022-09-13T07:06:32;2.22;;;2.22;;
14030;SDS011;7090;49.436;8.490;2022-09-13T07:09:01;2.70;;;2.60;;
14030;SDS011;7090;49.436;8.490;2022-09-13T07:11:29;2.60;;;2.50;;
14030;SDS011;7090;49.436;8.490;2022-09-13T07:13:57;4.97;;;4.53;;
14030;SDS011;7090;49.436;8.490;2022-09-13T07:16:24;2.75;;;2.60;;
14030;SDS011;7090;49.436;8.490;2022-09-13T07:18:58;4.05;;;3.75;;
14030;SDS011;7090;49.436;8.490;2022-09-13T07:21:25;3.78;;;3.47;;
14030;SDS011;7090;49.436;8.490;2022-09-13T07:23:52;5.93;;;5.32;;
14030;SDS011;7090;49.436;8.490;2022-09-13T07:26:19;4.70;;;4.30;;
14030;SDS011;7090;49.436;8.490;2022-09-13T07:28:46;3.00;;;2.90;;
14030;SDS011;7090;49.436;8.490;2022-09-13T07:33:44;2.42;;;2.33;;
14030;SDS011;7090;49.436;8.490;2022-09-13T07:36:11;6.32;;;3.97;;
14030;SDS011;7090;49.436;8.490;2022-09-13T07:38:39;5.55;;;4.32;;
14030;SDS011;7090;49.436;8.490;2022-09-13T07:41:11;3.85;;;3.55;;
14030;SDS011;7090;49.436;8.490;2022-09-13T07:43:38;3.92;;;3.63;;
14030;SDS011;7090;49.436;8.490;2022-09-13T07:46:05;2.63;;;2.53;;
14030;SDS011;7090;49.436;8.490;2022-09-13T07:48:36;2.20;;;2.20;;
14030;SDS011;7090;49.436;8.490;2022-09-13T07:51:07;2.50;;;2.40;;
14030;SDS011;7090;49.436;8.490;2022-09-13T07:53:44;3.47;;;3.28;;
14030;SDS011;7090;49.436;8.490;2022-09-13T07:58:41;4.13;;;3.42;;
14030;SDS011;7090;49.436;8.490;2022-09-13T08:01:18;3.55;;;3.35;;
14030;SDS011;7090;49.436;8.490;2022-09-13T08:03:50;2.35;;;2.25;;
14030;SDS011;7090;49.436;8.490;2022-09-13T08:06:16;3.17;;;2.97;;
14030;SDS011;7090;49.436;8.490;2022-09-13T08:08:41;4.80;;;3.72;;
14030;SDS011;7090;49.436;8.490;2022-09-13T08:11:07;2.45;;;2.35;;
14030;SDS011;7090;49.436;8.490;2022-09-13T08:13:32;1.88;;;1.88;;
14030;SDS011;7090;49.436;8.490;2022-09-13T08:16:02;2.20;;;2.10;;
14030;SDS011;7090;49.436;8.490;2022-09-13T08:18:29;3.22;;;3.03;;
14030;SDS011;7090;49.436;8.490;2022-09-13T08:20:56;2.97;;;2.78;;
14030;SDS011;7090;49.436;8.490;2022-09-13T08:23:22;6.35;;;2.85;;
14030;SDS011;7090;49.436;8.490;2022-09-13T08:25:48;3.08;;;2.83;;
14030;SDS011;7090;49.436;8.490;2022-09-13T08:28:14;4.20;;;3.80;;
14030;SDS011;7090;49.436;8.490;2022-09-13T08:30:41;4.57;;;4.18;;
14030;SDS011;7090;49.436;8.490;2022-09-13T08:33:07;2.30;;;2.20;;
14030;SDS011;7090;49.436;8.490;2022-09-13T08:35:34;2.50;;;2.40;;
14030;SDS011;7090;49.436;8.490;2022-09-13T08:38:01;3.20;;;2.90;;
14030;SDS011;7090;49.436;8.490;2022-09-13T08:40:27;4.00;;;3.67;;
14030;SDS011;7090;49.436;8.490;2022-09-13T08:43:01;2.20;;;2.13;;
14030;SDS011;7090;49.436;8.490;2022-09-13T08:45:48;1.90;;;1.90;;
14030;SDS011;7090;49.436;8.490;2022-09-13T08:48:17;1.73;;;1.73;;
14030;SDS011;7090;49.436;8.490;2022-09-13T08:50:46;3.47;;;2.78;;
14030;SDS011;7090;49.436;8.490;2022-09-13T08:53:26;2.47;;;2.28;;
14030;SDS011;7090;49.436;8.490;2022-09-13T08:56:07;2.83;;;2.63;;
14030;SDS011;7090;49.436;8.490;2022-09-13T09:06:39;2.08;;;1.98;;
14030;SDS011;7090;49.436;8.490;2022-09-13T09:09:11;1.30;;;1.30;;
14030;SDS011;7090;49.436;8.490;2022-09-13T09:11:41;1.90;;;1.80;;
14030;SDS011;7090;49.436;8.490;2022-09-13T09:14:14;1.10;;;1.10;;
14030;SDS011;7090;49.436;8.490;2022-09-13T09:17:03;3.47;;;2.72;;
14030;SDS011;7090;49.436;8.490;2022-09-13T09:19:42;1.60;;;1.52;;
14030;SDS011;7090;49.436;8.490;2022-09-13T09:22:13;2.00;;;1.90;;
14030;SDS011;7090;49.436;8.490;2022-09-13T09:24:44;3.60;;;2.45;;
14030;SDS011;7090;49.436;8.490;2022-09-13T09:27:13;1.50;;;1.50;;
14030;SDS011;7090;49.436;8.490;2022-09-13T09:29:41;1.77;;;1.67;;
14030;SDS011;7090;49.436;8.490;2022-09-13T09:32:24;5.68;;;3.10;;
14030;SDS011;7090;49.436;8.490;2022-09-13T09:37:29;1.00;;;1.00;;
14030;SDS011;7090;49.436;8.490;2022-09-13T09:39:57;1.05;;;1.05;;
14030;SDS011;7090;49.436;8.490;2022-09-13T09:42:27;1.75;;;1.65;;
14030;SDS011;7090;49.436;8.490;2022-09-13T09:44:59;1.85;;;1.75;;
14030;SDS011;7090;49.436;8.490;2022-09-13T09:47:32;1.10;;;1.10;;
14030;SDS011;7090;49.436;8.490;2022-09-13T09:52:48;1.23;;;1.23;;
14030;SDS011;7090;49.436;8.490;2022-09-13T09:58:14;2.10;;;2.00;;
14030;SDS011;7090;49.436;8.490;2022-09-13T10:00:56;1.38;;;1.38;;
14030;SDS011;7090;49.436;8.490;2022-09-13T10:03:27;1.20;;;1.20;;
14030;SDS011;7090;49.436;8.490;2022-09-13T10:06:07;1.35;;;1.35;;
14030;SDS011;7090;49.436;8.490;2022-09-13T10:08:36;1.33;;;1.33;;
14030;SDS011;7090;49.436;8.490;2022-09-13T10:11:04;1.30;;;1.30;;
14030;SDS011;7090;49.436;8.490;2022-09-13T10:13:31;3.83;;;3.15;;
14030;SDS011;7090;49.436;8.490;2022-09-13T10:18:23;1.45;;;1.45;;
14030;SDS011;7090;49.436;8.490;2022-09-13T10:23:43;1.58;;;1.55;;
14030;SDS011;7090;49.436;8.490;2022-09-13T10:26:15;2.42;;;2.33;;
14030;SDS011;7090;49.436;8.490;2022-09-13T10:28:44;2.60;;;2.33;;
14030;SDS011;7090;49.436;8.490;2022-09-13T10:31:17;2.38;;;2.20;;
14030;SDS011;7090;49.436;8.490;2022-09-13T10:36:23;2.75;;;2.55;;
14030;SDS011;7090;49.436;8.490;2022-09-13T10:39:00;2.90;;;2.67;;
14030;SDS011;7090;49.436;8.490;2022-09-13T10:41:29;2.65;;;2.45;;
14030;SDS011;7090;49.436;8.490;2022-09-13T10:43:58;1.92;;;1.83;;
14030;SDS011;7090;49.436;8.490;2022-09-13T10:46:30;2.00;;;1.90;;
14030;SDS011;7090;49.436;8.490;2022-09-13T10:48:59;2.22;;;2.13;;
14030;SDS011;7090;49.436;8.490;2022-09-13T10:53:50;2.33;;;2.08;;
14030;SDS011;7090;49.436;8.490;2022-09-13T10:56:41;1.80;;;1.70;;
14030;SDS011;7090;49.436;8.490;2022-09-13T11:02:04;1.30;;;1.30;;
14030;SDS011;7090;49.436;8.490;2022-09-13T11:15:14;2.30;;;2.20;;
14030;SDS011;7090;49.436;8.490;2022-09-13T11:27:07;1.90;;;1.80;;
14030;SDS011;7090;49.436;8.490;2022-09-13T11:32:04;1.77;;;1.73;;
14030;SDS011;7090;49.436;8.490;2022-09-13T11:43:40;1.40;;;1.40;;
14030;SDS011;7090;49.436;8.490;2022-09-13T11:51:25;2.50;;;2.30;;
14030;SDS011;7090;49.436;8.490;2022-09-13T11:56:45;2.63;;;1.77;;
14030;SDS011;7090;49.436;8.490;2022-09-13T12:01:55;2.05;;;1.88;;
14030;SDS011;7090;49.436;8.490;2022-09-13T12:04:24;2.35;;;2.15;;
14030;SDS011;7090;49.436;8.490;2022-09-13T12:06:56;2.35;;;2.22;;
14030;SDS011;7090;49.436;8.490;2022-09-13T12:09:30;1.50;;;1.50;;
14030;SDS011;7090;49.436;8.490;2022-09-13T12:12:03;1.40;;;1.40;;
14030;SDS011;7090;49.436;8.490;2022-09-13T12:15:05;1.48;;;1.48;;
14030;SDS011;7090;49.436;8.490;2022-09-13T12:17:36;1.40;;;1.40;;
14030;SDS011;7090;49.436;8.490;2022-09-13T12:20:18;1.40;;;1.40;;
14030;SDS011;7090;49.436;8.490;2022-09-13T12:22:54;3.10;;;2.78;;
14030;SDS011;7090;49.436;8.490;2022-09-13T12:25:26;2.40;;;2.20;;
14030;SDS011;7090;49.436;8.490;2022-09-13T12:28:03;1.98;;;1.88;;
14030;SDS011;7090;49.436;8.490;2022-09-13T12:30:44;1.60;;;1.60;;
14030;SDS011;7090;49.436;8.490;2022-09-13T12:33:17;1.58;;;1.58;;
14030;SDS011;7090;49.436;8.490;2022-09-13T12:35:47;1.20;;;1.20;;
14030;SDS011;7090;49.436;8.490;2022-09-13T12:41:41;2.72;;;2.63;;
14030;SDS011;7090;49.436;8.490;2022-09-13T12:58:13;2.33;;;2.22;;
14030;SDS011;7090;49.436;8.490;2022-09-13T13:01:00;1.67;;;1.58;;
14030;SDS011;7090;49.436;8.490;2022-09-13T13:03:56;2.00;;;1.90;;
14030;SDS011;7090;49.436;8.490;2022-09-13T13:06:37;1.90;;;1.88;;
14030;SDS011;7090;49.436;8.490;2022-09-13T13:09:46;1.33;;;1.33;;
14030;SDS011;7090;49.436;8.490;2022-09-13T13:12:07;1.50;;;1.50;;
14030;SDS011;7090;49.436;8.490;2022-09-13T13:20:00;2.05;;;2.03;;
14030;SDS011;7090;49.436;8.490;2022-09-13T13:31:43;1.30;;;1.30;;
14030;SDS011;7090;49.436;8.490;2022-09-13T13:41:57;2.30;;;2.20;;
14030;SDS011;7090;49.436;8.490;2022-09-13T13:55:02;1.70;;;1.70;;
14030;SDS011;7090;49.436;8.490;2022-09-13T14:00:27;1.88;;;1.88;;
14030;SDS011;7090;49.436;8.490;2022-09-13T14:19:48;1.90;;;1.90;;
14030;SDS011;7090;49.436;8.490;2022-09-13T14:24:47;2.00;;;2.00;;
14030;SDS011;7090;49.436;8.490;2022-09-13T14:27:14;2.50;;;2.40;;
14030;SDS011;7090;49.436;8.490;2022-09-13T14:29:43;1.85;;;1.85;;
14030;SDS011;7090;49.436;8.490;2022-09-13T14:32:15;1.90;;;1.90;;
14030;SDS011;7090;49.436;8.490;2022-09-13T14:34:58;2.08;;;2.08;;
14030;SDS011;7090;49.436;8.490;2022-09-13T14:37:31;2.08;;;2.08;;
14030;SDS011;7090;49.436;8.490;2022-09-13T14:40:00;2.30;;;2.30;;
14030;SDS011;7090;49.436;8.490;2022-09-13T14:42:39;2.20;;;2.20;;
14030;SDS011;7090;49.436;8.490;2022-09-13T14:45:11;2.00;;;2.00;;
14030;SDS011;7090;49.436;8.490;2022-09-13T14:50:44;2.00;;;2.00;;
14030;SDS011;7090;49.436;8.490;2022-09-13T14:53:18;2.80;;;2.70;;
14030;SDS011;7090;49.436;8.490;2022-09-13T14:55:54;2.50;;;2.40;;
14030;SDS011;7090;49.436;8.490;2022-09-13T14:59:10;2.03;;;2.03;;
14030;SDS011;7090;49.436;8.490;2022-09-13T15:01:15;1.90;;;1.90;;
14030;SDS011;7090;49.436;8.490;2022-09-13T15:03:44;1.90;;;1.90;;
14030;SDS011;7090;49.436;8.490;2022-09-13T15:06:27;1.70;;;1.70;;
14030;SDS011;7090;49.436;8.490;2022-09-13T15:09:00;2.17;;;2.08;;
14030;SDS011;7090;49.436;8.490;2022-09-13T15:11:37;1.83;;;1.83;;
14030;SDS011;7090;49.436;8.490;2022-09-13T15:14:26;1.65;;;1.65;;
14030;SDS011;7090;49.436;8.490;2022-09-13T15:17:06;1.60;;;1.60;;
14030;SDS011;7090;49.436;8.490;2022-09-13T15:19:40;1.60;;;1.60;;
14030;SDS011;7090;49.436;8.490;2022-09-13T15:22:17;1.50;;;1.50;;
14030;SDS011;7090;49.436;8.490;2022-09-13T15:24:49;1.83;;;1.83;;
14030;SDS011;7090;49.436;8.490;2022-09-13T15:27:22;1.77;;;1.77;;
14030;SDS011;7090;49.436;8.490;2022-09-13T15:29:58;2.63;;;2.50;;
14030;SDS011;7090;49.436;8.490;2022-09-13T15:35:15;2.30;;;2.20;;
14030;SDS011;7090;49.436;8.490;2022-09-13T15:40:43;2.50;;;2.40;;
14030;SDS011;7090;49.436;8.490;2022-09-13T15:43:10;1.90;;;1.90;;
14030;SDS011;7090;49.436;8.490;2022-09-13T15:45:36;1.90;;;1.90;;
14030;SDS011;7090;49.436;8.490;2022-09-13T15:48:02;2.10;;;2.10;;
14030;SDS011;7090;49.436;8.490;2022-09-13T15:50:29;2.00;;;2.00;;
14030;SDS011;7090;49.436;8.490;2022-09-13T15:52:57;1.90;;;1.90;;
14030;SDS011;7090;49.436;8.490;2022-09-13T15:55:24;1.80;;;1.80;;
14030;SDS011;7090;49.436;8.490;2022-09-13T15:57:52;2.35;;;2.25;;
14030;SDS011;7090;49.436;8.490;2022-09-13T16:00:19;2.10;;;2.10;;
14030;SDS011;7090;49.436;8.490;2022-09-13T16:02:46;2.10;;;2.10;;
14030;SDS011;7090;49.436;8.490;2022-09-13T16:05:12;2.42;;;2.33;;
14030;SDS011;7090;49.436;8.490;2022-09-13T16:07:39;2.00;;;2.00;;
14030;SDS011;7090;49.436;8.490;2022-09-13T16:10:09;2.85;;;2.75;;
14030;SDS011;7090;49.436;8.490;2022-09-13T16:12:37;2.00;;;2.00;;
14030;SDS011;7090;49.436;8.490;2022-09-13T16:15:03;1.90;;;1.90;;
14030;SDS011;7090;49.436;8.490;2022-09-13T16:17:29;1.75;;;1.75;;
14030;SDS011;7090;49.436;8.490;2022-09-13T16:19:54;1.80;;;1.80;;
14030;SDS011;7090;49.436;8.490;2022-09-13T16:22:20;2.08;;;2.08;;
14030;SDS011;7090;49.436;8.490;2022-09-13T16:24:46;1.90;;;1.90;;
14030;SDS011;7090;49.436;8.490;2022-09-13T16:27:13;1.60;;;1.60;;
14030;SDS011;7090;49.436;8.490;2022-09-13T16:29:40;2.42;;;2.22;;
14030;SDS011;7090;49.436;8.490;2022-09-13T16:32:06;1.77;;;1.77;;
14030;SDS011;7090;49.436;8.490;2022-09-13T16:34:32;1.60;;;1.60;;
14030;SDS011;7090;49.436;8.490;2022-09-13T16:36:58;2.20;;;2.10;;
14030;SDS011;7090;49.436;8.490;2022-09-13T16:39:23;1.75;;;1.67;;
14030;SDS011;7090;49.436;8.490;2022-09-13T16:41:49;1.70;;;1.70;;
14030;SDS011;7090;49.436;8.490;2022-09-13T16:44:14;1.60;;;1.60;;
14030;SDS011;7090;49.436;8.490;2022-09-13T16:46:40;1.50;;;1.50;;
14030;SDS011;7090;49.436;8.490;2022-09-13T16:49:06;1.30;;;1.30;;
14030;SDS011;7090;49.436;8.490;2022-09-13T16:51:32;1.52;;;1.52;;
14030;SDS011;7090;49.436;8.490;2022-09-13T16:53:58;1.33;;;1.33;;
14030;SDS011;7090;49.436;8.490;2022-09-13T16:56:24;1.45;;;1.45;;
14030;SDS011;7090;49.436;8.490;2022-09-13T16:58:52;1.40;;;1.40;;
14030;SDS011;7090;49.436;8.490;2022-09-13T17:01:19;1.40;;;1.40;;
14030;SDS011;7090;49.436;8.490;2022-09-13T17:03:47;1.60;;;1.60;;
14030;SDS011;7090;49.436;8.490;2022-09-13T17:06:14;2.35;;;2.25;;
14030;SDS011;7090;49.436;8.490;2022-09-13T17:08:44;1.70;;;1.60;;
14030;SDS011;7090;49.436;8.490;2022-09-13T17:11:12;1.40;;;1.40;;
14030;SDS011;7090;49.436;8.490;2022-09-13T17:13:40;1.85;;;1.85;;
14030;SDS011;7090;49.436;8.490;2022-09-13T17:18:47;2.00;;;1.90;;
14030;SDS011;7090;49.436;8.490;2022-09-13T17:21:12;1.92;;;1.83;;
14030;SDS011;7090;49.436;8.490;2022-09-13T17:23:38;1.63;;;1.63;;
14030;SDS011;7090;49.436;8.490;2022-09-13T17:26:03;1.10;;;1.10;;
14030;SDS011;7090;49.436;8.490;2022-09-13T17:28:29;1.00;;;1.00;;
14030;SDS011;7090;49.436;8.490;2022-09-13T17:30:55;1.00;;;1.00;;
14030;SDS011;7090;49.436;8.490;2022-09-13T17:33:20;1.20;;;1.20;;
14030;SDS011;7090;49.436;8.490;2022-09-13T17:35:46;1.17;;;1.17;;
14030;SDS011;7090;49.436;8.490;2022-09-13T17:38:25;1.30;;;1.30;;
14030;SDS011;7090;49.436;8.490;2022-09-13T17:40:58;1.17;;;1.17;;
14030;SDS011;7090;49.436;8.490;2022-09-13T17:43:24;1.77;;;1.67;;
14030;SDS011;7090;49.436;8.490;2022-09-13T17:45:50;1.38;;;1.35;;
14030;SDS011;7090;49.436;8.490;2022-09-13T17:48:16;2.03;;;1.90;;
14030;SDS011;7090;49.436;8.490;2022-09-13T17:50:41;1.23;;;1.23;;
14030;SDS011;7090;49.436;8.490;2022-09-13T17:53:07;1.83;;;1.73;;
14030;SDS011;7090;49.436;8.490;2022-09-13T17:55:32;2.05;;;1.95;;
14030;SDS011;7090;49.436;8.490;2022-09-13T17:57:58;2.00;;;1.90;;
14030;SDS011;7090;49.436;8.490;2022-09-13T18:00:23;1.45;;;1.35;;
14030;SDS011;7090;49.436;8.490;2022-09-13T18:02:50;2.20;;;2.10;;
14030;SDS011;7090;49.436;8.490;2022-09-13T18:05:15;3.35;;;2.55;;
14030;SDS011;7090;49.436;8.490;2022-09-13T18:07:41;1.65;;;1.55;;
14030;SDS011;7090;49.436;8.490;2022-09-13T18:10:07;3.88;;;2.25;;
14030;SDS011;7090;49.436;8.490;2022-09-13T18:12:33;3.15;;;1.70;;
14030;SDS011;7090;49.436;8.490;2022-09-13T18:14:58;2.47;;;2.38;;
14030;SDS011;7090;49.436;8.490;2022-09-13T18:17:24;1.58;;;1.58;;
14030;SDS011;7090;49.436;8.490;2022-09-13T18:19:50;2.05;;;1.95;;
14030;SDS011;7090;49.436;8.490;2022-09-13T18:22:15;2.10;;;2.00;;
14030;SDS011;7090;49.436;8.490;2022-09-13T18:24:41;1.92;;;1.83;;
14030;SDS011;7090;49.436;8.490;2022-09-13T18:27:07;1.50;;;1.50;;
14030;SDS011;7090;49.436;8.490;2022-09-13T18:29:33;1.73;;;1.73;;
14030;SDS011;7090;49.436;8.490;2022-09-13T18:31:58;1.92;;;1.88;;
14030;SDS011;7090;49.436;8.490;2022-09-13T18:34:24;1.65;;;1.65;;
14030;SDS011;7090;49.436;8.490;2022-09-13T18:36:50;1.30;;;1.30;;
14030;SDS011;7090;49.436;8.490;2022-09-13T18:39:16;1.67;;;1.65;;
14030;SDS011;7090;49.436;8.490;2022-09-13T18:41:43;2.17;;;2.08;;
14030;SDS011;7090;49.436;8.490;2022-09-13T18:44:11;2.22;;;2.03;;
14030;SDS011;7090;49.436;8.490;2022-09-13T18:46:37;1.60;;;1.60;;
14030;SDS011;7090;49.436;8.490;2022-09-13T18:49:04;1.73;;;1.73;;
14030;SDS011;7090;49.436;8.490;2022-09-13T18:51:34;2.80;;;2.60;;
14030;SDS011;7090;49.436;8.490;2022-09-13T18:54:02;2.58;;;2.42;;
14030;SDS011;7090;49.436;8.490;2022-09-13T18:56:29;1.55;;;1.55;;
14030;SDS011;7090;49.436;8.490;2022-09-13T18:58:57;1.60;;;1.60;;
14030;SDS011;7090;49.436;8.490;2022-09-13T19:01:28;1.70;;;1.70;;
14030;SDS011;7090;49.436;8.490;2022-09-13T19:03:57;2.53;;;2.42;;
14030;SDS011;7090;49.436;8.490;2022-09-13T19:06:32;1.90;;;1.90;;
14030;SDS011;7090;49.436;8.490;2022-09-13T19:08:58;1.63;;;1.63;;